Terminal Aerodrome Forecast
Issued by NWS Northern Indiana

Home | Current Version | Previous Version | Graphics & Text | Print | Product List | Glossary On
Versions: 1 2 3 4 5 6 7 8 9 10 11
880
FTUS43 KIWX 202151 AAA
TAFFWA
TAF AMD
KFWA 202151Z 2022/2118 24018G28KT P6SM VCTS BKN040CB OVC250
      TEMPO 2022/2024 24020G40KT 3SM +TSRA BKN030CB
     FM210000 27015G25KT P6SM BKN035
     FM210300 29013KT P6SM BKN020=

USA.gov is the U.S. government's official web portal to all federal, state and local government web resources and services.